Pagina principale
METAR-TAF:

METAR-TAF

Aeroporti :

Aeroporto di Ginevra-Cointrin

Ginevra, Svizzera

latitudine: 46-15N, longitudine: 006-08E, altezza: 420 m

Osservazione

Il bollettino è stato emesso 32 minuti fa, alle 02:20 UTC
Vento 1 kt da direzioni variabili
Temperature 7°C
Umidità 76%
Pressione 1027 hPa
Visibilità 10 km o più
Nuvoloso ad un'altezza di 5000 ft

METAR: LSGG 240220Z AUTO VRB01KT 9999 BKN050 07/03 Q1027 NOSIG

Ora: 03:52 (02:52 UTC)

Previsione

Il bollettino è stato emesso 27 minuti fa, alle 02:25 UTC
Previsione valida dal 24 alle 03 UTC al 25 alle 09 UTC
Vento 6 kt da sud-ovest
Visibilità 10 km o più
Nubi sparse ad un'altezza di 5000 ft
Evoluzione graduale
dal 24 alle 07 UTC al 24 alle 10 UTC
Visibilità 10 km o più
nessuna nube inferiore a 1500 m e nessun cumulonembo

TAF: LSGG 240225Z 2403/2509 22006KT 9999 SCT050 TX19/2415Z TN05/2406Z TN04/2506Z BECMG 2407/2410 CAVOK

Osservazioni e previsioni meteorologiche di più di 4000 aeroporti (messaggi METAR e TAF).

Le stazioni disponibili sono rappresentate dai dischi gialli e rossi sulla carta.

Puntare il mouse per vedere il nome della stazione.

Clicca sopra per visualizzare le osservazioni e previsioni meteorologiche.

Per cambiare la mappa : fare clic sui pulsanti verdi con una croce nera per ingrandire, il pulsante verde con un trattino per diminuire, o sulla freccia verde per le mappe adiacenti.


METAR-TAF: